createdAt,value
2023-02-17T00:04:09.263Z,38.50
2023-02-17T00:09:13.735Z,39.33
2023-02-17T00:14:20.611Z,38.97
2023-02-17T00:24:33.938Z,38.72
2023-02-17T00:29:40.277Z,36.83
2023-02-17T00:34:45.249Z,36.78
2023-02-17T00:39:52.428Z,36.42
2023-02-17T00:44:58.635Z,36.40
2023-02-17T00:50:03.109Z,34.60
2023-02-17T00:55:10.535Z,36.97
2023-02-17T01:00:17.924Z,35.50
2023-02-17T01:05:22.452Z,34.70
2023-02-17T01:10:27.235Z,35.40
2023-02-17T01:15:33.971Z,34.47
2023-02-17T01:20:42.802Z,35.50
2023-02-17T01:25:49.120Z,35.60
2023-02-17T01:30:55.194Z,35.03
2023-02-17T01:36:06.138Z,35.47
2023-02-17T01:41:11.770Z,36.38
2023-02-17T01:46:17.773Z,34.35
2023-02-17T01:51:27.829Z,34.92
2023-02-17T01:56:37.219Z,35.17
2023-02-17T02:01:44.140Z,34.60
2023-02-17T02:06:49.406Z,33.88
2023-02-17T02:11:56.266Z,35.80
2023-02-17T02:17:10.594Z,34.55
2023-02-17T02:22:40.460Z,36.88
2023-02-17T02:27:59.535Z,35.58
2023-02-17T02:33:13.227Z,34.58
2023-02-17T02:38:22.222Z,35.40
2023-02-17T02:43:27.836Z,33.15
2023-02-17T02:48:34.069Z,34.58
2023-02-17T02:54:13.941Z,34.45
2023-02-17T02:59:32.233Z,34.97
2023-02-17T03:04:49.977Z,33.63
2023-02-17T03:09:57.866Z,35.43
2023-02-17T03:15:06.713Z,32.88
2023-02-17T03:20:15.471Z,33.42
2023-02-17T03:25:23.337Z,32.25
2023-02-17T03:30:29.620Z,33.60
2023-02-17T03:35:35.929Z,33.90
2023-02-17T03:40:40.544Z,33.03
2023-02-17T03:45:45.306Z,33.08
2023-02-17T03:50:51.293Z,33.92
2023-02-17T03:55:56.925Z,33.53
2023-02-17T04:01:01.693Z,30.25
2023-02-17T04:06:10.575Z,32.22
2023-02-17T04:11:15.368Z,33.13
2023-02-17T04:16:21.444Z,31.85
2023-02-17T04:21:27.648Z,31.70
2023-02-17T04:26:32.679Z,32.78
2023-02-17T04:31:37.294Z,32.03
2023-02-17T04:36:44.430Z,32.15
2023-02-17T04:41:49.531Z,31.98
2023-02-17T04:46:54.027Z,30.48
2023-02-17T04:52:00.259Z,31.13
2023-02-17T04:57:08.912Z,32.72
2023-02-17T05:07:19.454Z,36.47
2023-02-17T05:12:23.978Z,35.20
2023-02-17T05:17:28.667Z,34.70
2023-02-17T05:22:35.455Z,49.15
2023-02-17T05:27:40.063Z,55.70
2023-02-17T05:32:45.211Z,46.85
2023-02-17T05:37:51.132Z,39.03
2023-02-17T05:48:00.280Z,67.45
2023-02-17T05:53:06.162Z,41.80
2023-02-17T06:03:15.485Z,176.07
2023-02-17T06:08:22.023Z,91.93
2023-02-17T06:13:27.035Z,48.10
2023-02-17T06:18:31.612Z,58.70
2023-02-17T06:23:37.524Z,32.58
2023-02-17T06:33:47.759Z,31.75
2023-02-17T06:38:53.690Z,31.17
2023-02-17T06:49:02.762Z,35.35
2023-02-17T06:54:08.815Z,34.67
2023-02-17T07:04:17.493Z,28.33
2023-02-17T07:09:23.420Z,29.15
2023-02-17T07:14:29.111Z,29.60
2023-02-17T07:19:33.993Z,28.92
2023-02-17T07:24:40.830Z,26.77
2023-02-17T07:29:45.436Z,30.90
2023-02-17T07:34:49.967Z,30.90
2023-02-17T07:39:57.255Z,29.38
2023-02-17T07:45:01.836Z,31.15
2023-02-17T07:50:07.520Z,32.38
2023-02-17T07:55:14.559Z,29.25
2023-02-17T08:00:20.393Z,29.58
2023-02-17T08:10:59.554Z,29.70
2023-02-17T08:16:04.464Z,29.75
2023-02-17T08:21:09.133Z,29.07
2023-02-17T08:26:15.288Z,29.33
2023-02-17T08:31:23.561Z,31.75
2023-02-17T08:36:29.870Z,34.25
2023-02-17T08:41:37.894Z,32.78
2023-02-17T08:46:43.215Z,30.85
2023-02-17T08:51:48.849Z,30.37
2023-02-17T08:56:54.901Z,32.55
2023-02-17T09:02:01.036Z,33.80
2023-02-17T09:07:05.558Z,32.28
2023-02-17T09:12:13.866Z,32.97
2023-02-17T09:17:19.946Z,33.28
2023-02-17T09:27:38.646Z,30.10
2023-02-17T09:32:43.577Z,32.47
2023-02-17T09:37:48.338Z,35.00
2023-02-17T09:42:54.628Z,31.80
2023-02-17T09:48:03.308Z,33.35
2023-02-17T09:53:15.636Z,33.17
2023-02-17T09:58:27.026Z,29.52
2023-02-17T10:03:37.414Z,33.92
2023-02-17T10:08:49.920Z,29.65
2023-02-17T10:13:58.883Z,35.15
2023-02-17T10:19:14.372Z,31.23
2023-02-17T10:24:18.922Z,29.97
2023-02-17T10:29:35.595Z,32.17
2023-02-17T10:34:47.467Z,32.55
2023-02-17T10:39:53.987Z,32.33
2023-02-17T10:45:04.164Z,32.72
2023-02-17T10:50:16.276Z,30.58
2023-02-17T10:55:27.005Z,32.83
2023-02-17T11:00:32.865Z,31.58
2023-02-17T11:10:42.922Z,37.28
2023-02-17T11:15:49.351Z,40.88
2023-02-17T11:21:02.647Z,38.20
2023-02-17T11:26:26.371Z,37.80
2023-02-17T11:31:33.546Z,44.95
2023-02-17T11:36:38.167Z,36.60
2023-02-17T11:41:42.820Z,34.33
2023-02-17T11:46:57.070Z,43.17
2023-02-17T11:52:13.518Z,33.78
2023-02-17T11:57:34.801Z,36.13
2023-02-17T12:02:54.432Z,37.03
2023-02-17T12:08:19.512Z,50.97
2023-02-17T12:13:34.856Z,42.88
2023-02-17T12:18:55.214Z,38.43
2023-02-17T12:24:32.563Z,56.25
2023-02-17T12:29:57.813Z,41.50
2023-02-17T12:35:17.462Z,71.50
2023-02-17T12:40:34.316Z,41.25
2023-02-17T12:45:42.456Z,44.75
2023-02-17T12:50:56.176Z,57.65
2023-02-17T12:56:05.634Z,54.35
2023-02-17T13:01:17.079Z,50.83
2023-02-17T13:06:33.580Z,57.83
2023-02-17T13:11:38.073Z,46.83
2023-02-17T13:16:46.157Z,40.45
2023-02-17T13:21:57.324Z,42.38
2023-02-17T13:27:12.600Z,37.17
2023-02-17T13:32:28.221Z,41.83
2023-02-17T13:37:42.748Z,42.58
2023-02-17T13:42:48.818Z,41.33
2023-02-17T13:47:55.626Z,38.28
2023-02-17T13:53:02.649Z,37.53
2023-02-17T13:58:07.613Z,40.63
2023-02-17T14:03:21.113Z,40.67
2023-02-17T14:08:34.234Z,37.67
2023-02-17T14:13:40.172Z,39.28
2023-02-17T14:23:52.666Z,33.88
2023-02-17T14:28:59.072Z,37.42
2023-02-17T14:34:04.663Z,35.30
2023-02-17T14:39:16.220Z,35.20
2023-02-17T14:44:20.613Z,36.25
2023-02-17T14:49:25.189Z,36.15
2023-02-17T14:54:31.667Z,32.92
2023-02-17T14:59:36.126Z,32.88
2023-02-17T15:04:40.566Z,28.45
2023-02-17T15:09:47.886Z,32.42
2023-02-17T15:14:52.340Z,29.30
2023-02-17T15:19:56.766Z,33.33
2023-02-17T15:25:02.604Z,31.02
2023-02-17T15:35:18.659Z,32.42
2023-02-17T15:40:26.497Z,34.28
2023-02-17T15:45:34.939Z,31.33
2023-02-17T15:50:39.796Z,32.92
2023-02-17T15:55:45.880Z,31.55
2023-02-17T16:00:51.384Z,34.40
2023-02-17T16:05:55.979Z,33.08
2023-02-17T16:11:02.178Z,31.27
2023-02-17T16:16:11.913Z,31.85
2023-02-17T16:21:16.771Z,31.35
2023-02-17T16:26:27.576Z,32.92
2023-02-17T16:31:35.906Z,34.60
2023-02-17T16:36:40.568Z,35.53
2023-02-17T16:41:46.526Z,34.28
2023-02-17T16:46:54.702Z,34.63
2023-02-17T16:52:00.738Z,34.08
2023-02-17T16:57:06.850Z,41.20
2023-02-17T17:02:12.480Z,33.58
2023-02-17T17:07:17.038Z,45.63
2023-02-17T17:12:22.774Z,36.17
2023-02-17T17:17:27.304Z,41.50
2023-02-17T17:22:32.269Z,42.17
2023-02-17T17:27:38.306Z,48.35
2023-02-17T17:32:42.666Z,52.92
2023-02-17T17:37:47.430Z,46.85
2023-02-17T17:42:54.168Z,46.90
2023-02-17T17:47:58.470Z,45.10
2023-02-17T17:53:02.880Z,51.65
2023-02-17T17:58:08.826Z,49.15
2023-02-17T18:03:13.234Z,54.55
2023-02-17T18:08:17.883Z,49.47
2023-02-17T18:13:24.196Z,56.13
2023-02-17T18:18:29.157Z,51.75
2023-02-17T18:23:33.561Z,57.25
2023-02-17T18:28:39.475Z,45.75
2023-02-17T18:38:48.674Z,52.78
2023-02-17T18:43:54.817Z,60.30
2023-02-17T18:48:59.190Z,38.35
2023-02-17T18:54:04.645Z,45.83
2023-02-17T18:59:12.382Z,41.20
2023-02-17T19:04:16.705Z,44.28
2023-02-17T19:09:21.227Z,56.33
2023-02-17T19:14:27.081Z,34.65
2023-02-17T19:24:36.185Z,36.20
2023-02-17T19:29:42.067Z,40.90
2023-02-17T19:39:50.412Z,38.92
2023-02-17T19:44:56.270Z,38.38
2023-02-17T19:55:05.824Z,32.53
2023-02-17T20:00:12.728Z,38.50
2023-02-17T20:05:17.406Z,31.15
2023-02-17T20:10:22.405Z,28.75
2023-02-17T20:15:28.356Z,28.27
2023-02-17T20:20:32.868Z,28.10
2023-02-17T20:25:41.622Z,29.48
2023-02-17T20:30:49.623Z,29.55
2023-02-17T20:35:54.159Z,25.30
2023-02-17T20:40:58.705Z,23.23
2023-02-17T20:46:05.380Z,21.40
2023-02-17T20:51:10.150Z,23.73
2023-02-17T20:56:16.023Z,20.75
2023-02-17T21:01:21.865Z,22.75
2023-02-17T21:11:31.516Z,19.77
2023-02-17T21:16:37.540Z,20.15
2023-02-17T21:21:42.230Z,19.25
2023-02-17T21:26:46.554Z,20.13
2023-02-17T21:31:53.292Z,19.35
2023-02-17T21:36:57.872Z,17.65
2023-02-17T21:42:02.222Z,18.80
2023-02-17T21:47:08.042Z,19.88
2023-02-17T21:52:12.534Z,18.63
2023-02-17T21:57:16.849Z,16.45
2023-02-17T22:02:22.789Z,17.17
2023-02-17T22:12:31.415Z,15.75
2023-02-17T22:17:37.513Z,14.90
2023-02-17T22:22:41.950Z,14.63
2023-02-17T22:27:46.585Z,16.10
2023-02-17T22:32:52.297Z,15.77
2023-02-17T22:37:57.812Z,16.48
2023-02-17T22:43:02.140Z,15.75
2023-02-17T22:48:08.181Z,15.32
2023-02-17T22:58:17.661Z,16.45
2023-02-17T23:03:23.414Z,15.13
2023-02-17T23:08:27.696Z,16.27
2023-02-17T23:13:32.135Z,15.50
2023-02-17T23:18:38.080Z,14.88
2023-02-17T23:23:42.376Z,17.25
2023-02-17T23:28:46.729Z,16.67
2023-02-17T23:33:52.485Z,14.25
2023-02-17T23:38:58.845Z,10.63
2023-02-17T23:44:03.175Z,10.15
2023-02-17T23:49:08.978Z,7.90
2023-02-17T23:54:13.326Z,7.97
2023-02-17T23:59:17.590Z,7.90
